sensor_id;sensor_type;location;lat;lon;timestamp;P1;durP1;ratioP1;P2;durP2;ratioP2
30010;SDS011;16851;53.564;8.112;2022-08-20T00:03:16;23.50;;;17.60;;
30010;SDS011;16851;53.564;8.112;2022-08-20T00:08:20;21.75;;;18.38;;
30010;SDS011;16851;53.564;8.112;2022-08-20T00:13:27;22.13;;;16.67;;
30010;SDS011;16851;53.564;8.112;2022-08-20T00:18:32;20.85;;;16.35;;
30010;SDS011;16851;53.564;8.112;2022-08-20T00:23:38;22.85;;;18.02;;
30010;SDS011;16851;53.564;8.112;2022-08-20T00:28:48;19.13;;;16.83;;
30010;SDS011;16851;53.564;8.112;2022-08-20T00:33:53;22.90;;;17.45;;
30010;SDS011;16851;53.564;8.112;2022-08-20T00:38:57;26.42;;;17.25;;
30010;SDS011;16851;53.564;8.112;2022-08-20T00:44:17;19.80;;;16.13;;
30010;SDS011;16851;53.564;8.112;2022-08-20T00:49:28;16.63;;;14.45;;
30010;SDS011;16851;53.564;8.112;2022-08-20T00:54:43;17.45;;;15.63;;
30010;SDS011;16851;53.564;8.112;2022-08-20T00:59:50;18.48;;;14.75;;
30010;SDS011;16851;53.564;8.112;2022-08-20T01:04:57;21.08;;;16.00;;
30010;SDS011;16851;53.564;8.112;2022-08-20T01:10:03;19.08;;;15.50;;
30010;SDS011;16851;53.564;8.112;2022-08-20T01:15:10;19.35;;;15.35;;
30010;SDS011;16851;53.564;8.112;2022-08-20T01:25:43;16.80;;;13.95;;
30010;SDS011;16851;53.564;8.112;2022-08-20T01:31:07;19.30;;;14.25;;
30010;SDS011;16851;53.564;8.112;2022-08-20T01:36:15;16.13;;;14.13;;
30010;SDS011;16851;53.564;8.112;2022-08-20T01:41:24;15.93;;;13.20;;
30010;SDS011;16851;53.564;8.112;2022-08-20T01:46:35;18.02;;;15.13;;
30010;SDS011;16851;53.564;8.112;2022-08-20T01:51:45;16.92;;;14.02;;
30010;SDS011;16851;53.564;8.112;2022-08-20T01:56:57;19.00;;;14.63;;
30010;SDS011;16851;53.564;8.112;2022-08-20T02:02:04;16.55;;;13.90;;
30010;SDS011;16851;53.564;8.112;2022-08-20T02:07:14;16.35;;;14.27;;
30010;SDS011;16851;53.564;8.112;2022-08-20T02:12:21;14.40;;;12.90;;
30010;SDS011;16851;53.564;8.112;2022-08-20T02:17:23;14.88;;;12.30;;
30010;SDS011;16851;53.564;8.112;2022-08-20T02:22:33;16.65;;;12.35;;
30010;SDS011;16851;53.564;8.112;2022-08-20T02:27:41;14.77;;;13.15;;
30010;SDS011;16851;53.564;8.112;2022-08-20T02:32:46;15.52;;;13.68;;
30010;SDS011;16851;53.564;8.112;2022-08-20T02:37:53;14.85;;;13.20;;
30010;SDS011;16851;53.564;8.112;2022-08-20T02:42:58;17.38;;;14.48;;
30010;SDS011;16851;53.564;8.112;2022-08-20T02:48:03;19.50;;;14.27;;
30010;SDS011;16851;53.564;8.112;2022-08-20T02:53:07;17.70;;;14.70;;
30010;SDS011;16851;53.564;8.112;2022-08-20T02:58:15;16.90;;;13.80;;
30010;SDS011;16851;53.564;8.112;2022-08-20T03:03:20;18.42;;;13.95;;
30010;SDS011;16851;53.564;8.112;2022-08-20T03:08:23;17.90;;;15.20;;
30010;SDS011;16851;53.564;8.112;2022-08-20T03:13:29;17.25;;;14.63;;
30010;SDS011;16851;53.564;8.112;2022-08-20T03:18:35;17.58;;;14.48;;
30010;SDS011;16851;53.564;8.112;2022-08-20T03:23:41;17.33;;;14.55;;
30010;SDS011;16851;53.564;8.112;2022-08-20T03:28:45;22.90;;;14.35;;
30010;SDS011;16851;53.564;8.112;2022-08-20T03:33:51;16.98;;;14.13;;
30010;SDS011;16851;53.564;8.112;2022-08-20T03:38:56;16.70;;;14.48;;
30010;SDS011;16851;53.564;8.112;2022-08-20T03:43:59;21.38;;;15.43;;
30010;SDS011;16851;53.564;8.112;2022-08-20T03:49:02;17.17;;;13.68;;
30010;SDS011;16851;53.564;8.112;2022-08-20T03:54:08;17.17;;;14.57;;
30010;SDS011;16851;53.564;8.112;2022-08-20T03:59:17;19.35;;;16.38;;
30010;SDS011;16851;53.564;8.112;2022-08-20T04:04:21;18.90;;;16.05;;
30010;SDS011;16851;53.564;8.112;2022-08-20T04:09:23;20.42;;;15.82;;
30010;SDS011;16851;53.564;8.112;2022-08-20T04:14:29;18.50;;;15.15;;
30010;SDS011;16851;53.564;8.112;2022-08-20T04:19:34;22.58;;;15.85;;
30010;SDS011;16851;53.564;8.112;2022-08-20T04:24:37;18.85;;;15.05;;
30010;SDS011;16851;53.564;8.112;2022-08-20T04:29:41;19.10;;;15.82;;
30010;SDS011;16851;53.564;8.112;2022-08-20T04:34:48;18.67;;;16.55;;
30010;SDS011;16851;53.564;8.112;2022-08-20T04:39:54;17.05;;;14.48;;
30010;SDS011;16851;53.564;8.112;2022-08-20T04:45:24;23.13;;;16.52;;
30010;SDS011;16851;53.564;8.112;2022-08-20T04:50:26;21.27;;;14.15;;
30010;SDS011;16851;53.564;8.112;2022-08-20T04:55:27;23.88;;;14.20;;
30010;SDS011;16851;53.564;8.112;2022-08-20T05:00:38;16.83;;;12.63;;
30010;SDS011;16851;53.564;8.112;2022-08-20T05:05:45;21.90;;;11.80;;
30010;SDS011;16851;53.564;8.112;2022-08-20T05:10:53;18.38;;;10.25;;
30010;SDS011;16851;53.564;8.112;2022-08-20T05:16:18;20.38;;;9.93;;
30010;SDS011;16851;53.564;8.112;2022-08-20T05:21:20;15.57;;;9.48;;
30010;SDS011;16851;53.564;8.112;2022-08-20T05:26:27;14.10;;;7.93;;
30010;SDS011;16851;53.564;8.112;2022-08-20T05:31:32;13.95;;;6.15;;
30010;SDS011;16851;53.564;8.112;2022-08-20T05:36:46;15.25;;;5.57;;
30010;SDS011;16851;53.564;8.112;2022-08-20T05:41:55;11.18;;;4.28;;
30010;SDS011;16851;53.564;8.112;2022-08-20T05:46:57;17.67;;;4.03;;
30010;SDS011;16851;53.564;8.112;2022-08-20T05:52:04;16.77;;;3.80;;
30010;SDS011;16851;53.564;8.112;2022-08-20T05:57:09;12.15;;;3.58;;
30010;SDS011;16851;53.564;8.112;2022-08-20T06:02:14;13.38;;;3.03;;
30010;SDS011;16851;53.564;8.112;2022-08-20T06:07:35;15.38;;;3.00;;
30010;SDS011;16851;53.564;8.112;2022-08-20T06:12:39;11.45;;;2.88;;
30010;SDS011;16851;53.564;8.112;2022-08-20T06:17:44;13.90;;;3.15;;
30010;SDS011;16851;53.564;8.112;2022-08-20T06:22:58;16.48;;;3.13;;
30010;SDS011;16851;53.564;8.112;2022-08-20T06:28:01;14.20;;;2.97;;
30010;SDS011;16851;53.564;8.112;2022-08-20T06:33:06;11.93;;;2.58;;
30010;SDS011;16851;53.564;8.112;2022-08-20T06:38:11;12.18;;;2.47;;
30010;SDS011;16851;53.564;8.112;2022-08-20T06:43:18;13.57;;;2.45;;
30010;SDS011;16851;53.564;8.112;2022-08-20T06:48:26;12.45;;;2.30;;
30010;SDS011;16851;53.564;8.112;2022-08-20T06:53:32;10.77;;;2.10;;
30010;SDS011;16851;53.564;8.112;2022-08-20T06:58:36;11.52;;;2.42;;
30010;SDS011;16851;53.564;8.112;2022-08-20T07:03:41;11.55;;;1.98;;
30010;SDS011;16851;53.564;8.112;2022-08-20T07:08:58;19.27;;;2.67;;
30010;SDS011;16851;53.564;8.112;2022-08-20T07:14:05;7.45;;;1.98;;
30010;SDS011;16851;53.564;8.112;2022-08-20T07:19:10;10.20;;;2.22;;
30010;SDS011;16851;53.564;8.112;2022-08-20T07:24:18;9.70;;;1.55;;
30010;SDS011;16851;53.564;8.112;2022-08-20T07:29:22;8.98;;;1.45;;
30010;SDS011;16851;53.564;8.112;2022-08-20T07:34:44;10.63;;;2.13;;
30010;SDS011;16851;53.564;8.112;2022-08-20T07:39:49;10.90;;;1.90;;
30010;SDS011;16851;53.564;8.112;2022-08-20T07:44:51;9.02;;;1.30;;
30010;SDS011;16851;53.564;8.112;2022-08-20T07:49:53;11.18;;;1.80;;
30010;SDS011;16851;53.564;8.112;2022-08-20T07:54:55;8.02;;;1.60;;
30010;SDS011;16851;53.564;8.112;2022-08-20T08:00:01;11.13;;;1.65;;
30010;SDS011;16851;53.564;8.112;2022-08-20T08:05:09;8.25;;;1.70;;
30010;SDS011;16851;53.564;8.112;2022-08-20T08:10:16;7.20;;;1.52;;
30010;SDS011;16851;53.564;8.112;2022-08-20T08:15:26;11.52;;;2.15;;
30010;SDS011;16851;53.564;8.112;2022-08-20T08:20:34;9.20;;;2.08;;
30010;SDS011;16851;53.564;8.112;2022-08-20T08:25:52;6.90;;;1.23;;
30010;SDS011;16851;53.564;8.112;2022-08-20T08:31:04;7.55;;;1.83;;
30010;SDS011;16851;53.564;8.112;2022-08-20T08:36:07;7.30;;;1.67;;
30010;SDS011;16851;53.564;8.112;2022-08-20T08:41:17;7.95;;;1.50;;
30010;SDS011;16851;53.564;8.112;2022-08-20T08:46:23;11.07;;;1.50;;
30010;SDS011;16851;53.564;8.112;2022-08-20T08:51:36;13.40;;;2.03;;
30010;SDS011;16851;53.564;8.112;2022-08-20T08:57:06;8.95;;;1.42;;
30010;SDS011;16851;53.564;8.112;2022-08-20T09:02:19;10.85;;;1.75;;
30010;SDS011;16851;53.564;8.112;2022-08-20T09:07:29;8.20;;;1.40;;
30010;SDS011;16851;53.564;8.112;2022-08-20T09:12:35;8.35;;;1.63;;
30010;SDS011;16851;53.564;8.112;2022-08-20T09:17:40;16.73;;;2.10;;
30010;SDS011;16851;53.564;8.112;2022-08-20T09:22:46;7.93;;;1.52;;
30010;SDS011;16851;53.564;8.112;2022-08-20T09:27:53;6.38;;;1.38;;
30010;SDS011;16851;53.564;8.112;2022-08-20T09:32:58;6.70;;;1.15;;
30010;SDS011;16851;53.564;8.112;2022-08-20T09:38:06;7.95;;;1.40;;
30010;SDS011;16851;53.564;8.112;2022-08-20T09:43:10;9.82;;;1.38;;
30010;SDS011;16851;53.564;8.112;2022-08-20T09:48:15;6.20;;;1.42;;
30010;SDS011;16851;53.564;8.112;2022-08-20T09:53:19;6.05;;;1.08;;
30010;SDS011;16851;53.564;8.112;2022-08-20T09:58:34;8.73;;;1.52;;
30010;SDS011;16851;53.564;8.112;2022-08-20T10:03:39;4.80;;;1.15;;
30010;SDS011;16851;53.564;8.112;2022-08-20T10:08:51;4.85;;;1.20;;
30010;SDS011;16851;53.564;8.112;2022-08-20T10:13:54;7.90;;;1.27;;
30010;SDS011;16851;53.564;8.112;2022-08-20T10:18:58;6.25;;;1.20;;
30010;SDS011;16851;53.564;8.112;2022-08-20T10:24:01;34.88;;;10.60;;
30010;SDS011;16851;53.564;8.112;2022-08-20T10:29:09;10.02;;;2.10;;
30010;SDS011;16851;53.564;8.112;2022-08-20T10:34:11;10.77;;;2.40;;
30010;SDS011;16851;53.564;8.112;2022-08-20T10:39:15;6.07;;;1.38;;
30010;SDS011;16851;53.564;8.112;2022-08-20T10:44:21;6.68;;;1.30;;
30010;SDS011;16851;53.564;8.112;2022-08-20T10:49:24;7.10;;;1.38;;
30010;SDS011;16851;53.564;8.112;2022-08-20T10:54:31;6.82;;;1.42;;
30010;SDS011;16851;53.564;8.112;2022-08-20T10:59:38;8.75;;;1.15;;
30010;SDS011;16851;53.564;8.112;2022-08-20T11:04:40;9.77;;;1.20;;
30010;SDS011;16851;53.564;8.112;2022-08-20T11:09:51;6.07;;;1.13;;
30010;SDS011;16851;53.564;8.112;2022-08-20T11:14:55;3.85;;;1.02;;
30010;SDS011;16851;53.564;8.112;2022-08-20T11:19:57;7.07;;;1.05;;
30010;SDS011;16851;53.564;8.112;2022-08-20T11:25:02;6.57;;;1.30;;
30010;SDS011;16851;53.564;8.112;2022-08-20T11:30:07;5.22;;;1.23;;
30010;SDS011;16851;53.564;8.112;2022-08-20T11:35:10;10.07;;;1.63;;
30010;SDS011;16851;53.564;8.112;2022-08-20T11:40:32;5.03;;;1.05;;
30010;SDS011;16851;53.564;8.112;2022-08-20T11:45:34;5.13;;;1.00;;
30010;SDS011;16851;53.564;8.112;2022-08-20T11:50:38;6.60;;;1.10;;
30010;SDS011;16851;53.564;8.112;2022-08-20T11:55:43;4.57;;;1.10;;
30010;SDS011;16851;53.564;8.112;2022-08-20T12:00:46;6.18;;;1.10;;
30010;SDS011;16851;53.564;8.112;2022-08-20T12:05:55;4.90;;;0.98;;
30010;SDS011;16851;53.564;8.112;2022-08-20T12:11:00;5.03;;;1.20;;
30010;SDS011;16851;53.564;8.112;2022-08-20T12:16:03;4.68;;;1.10;;
30010;SDS011;16851;53.564;8.112;2022-08-20T12:21:06;7.88;;;1.30;;
30010;SDS011;16851;53.564;8.112;2022-08-20T12:26:08;6.88;;;1.42;;
30010;SDS011;16851;53.564;8.112;2022-08-20T12:31:16;8.43;;;1.25;;
30010;SDS011;16851;53.564;8.112;2022-08-20T12:36:18;8.25;;;0.95;;
30010;SDS011;16851;53.564;8.112;2022-08-20T12:41:22;6.20;;;0.88;;
30010;SDS011;16851;53.564;8.112;2022-08-20T12:46:24;4.35;;;0.90;;
30010;SDS011;16851;53.564;8.112;2022-08-20T12:51:27;4.60;;;1.40;;
30010;SDS011;16851;53.564;8.112;2022-08-20T12:56:31;8.15;;;1.10;;
30010;SDS011;16851;53.564;8.112;2022-08-20T13:01:36;4.60;;;1.20;;
30010;SDS011;16851;53.564;8.112;2022-08-20T13:06:45;9.95;;;1.30;;
30010;SDS011;16851;53.564;8.112;2022-08-20T13:11:47;4.03;;;0.93;;
30010;SDS011;16851;53.564;8.112;2022-08-20T13:16:53;6.18;;;1.40;;
30010;SDS011;16851;53.564;8.112;2022-08-20T13:22:03;5.75;;;1.30;;
30010;SDS011;16851;53.564;8.112;2022-08-20T13:27:10;5.90;;;0.90;;
30010;SDS011;16851;53.564;8.112;2022-08-20T13:32:19;6.63;;;1.40;;
30010;SDS011;16851;53.564;8.112;2022-08-20T13:37:23;8.73;;;1.48;;
30010;SDS011;16851;53.564;8.112;2022-08-20T13:42:28;5.75;;;1.52;;
30010;SDS011;16851;53.564;8.112;2022-08-20T13:47:33;7.88;;;1.23;;
30010;SDS011;16851;53.564;8.112;2022-08-20T13:52:41;5.97;;;1.50;;
30010;SDS011;16851;53.564;8.112;2022-08-20T13:57:51;4.80;;;1.02;;
30010;SDS011;16851;53.564;8.112;2022-08-20T14:02:54;7.28;;;1.13;;
30010;SDS011;16851;53.564;8.112;2022-08-20T14:08:03;3.92;;;1.40;;
30010;SDS011;16851;53.564;8.112;2022-08-20T14:13:09;8.85;;;1.40;;
30010;SDS011;16851;53.564;8.112;2022-08-20T14:18:19;9.23;;;1.42;;
30010;SDS011;16851;53.564;8.112;2022-08-20T14:23:21;7.68;;;1.52;;
30010;SDS011;16851;53.564;8.112;2022-08-20T14:28:23;7.90;;;1.73;;
30010;SDS011;16851;53.564;8.112;2022-08-20T14:33:25;6.18;;;1.30;;
30010;SDS011;16851;53.564;8.112;2022-08-20T14:38:31;8.20;;;1.65;;
30010;SDS011;16851;53.564;8.112;2022-08-20T14:43:37;5.90;;;1.63;;
30010;SDS011;16851;53.564;8.112;2022-08-20T14:48:43;5.18;;;1.48;;
30010;SDS011;16851;53.564;8.112;2022-08-20T14:53:53;5.63;;;1.10;;
30010;SDS011;16851;53.564;8.112;2022-08-20T14:58:57;7.13;;;1.70;;
30010;SDS011;16851;53.564;8.112;2022-08-20T15:03:59;6.03;;;1.67;;
30010;SDS011;16851;53.564;8.112;2022-08-20T15:09:02;7.30;;;1.92;;
30010;SDS011;16851;53.564;8.112;2022-08-20T15:14:08;8.20;;;1.52;;
30010;SDS011;16851;53.564;8.112;2022-08-20T15:19:11;5.15;;;1.30;;
30010;SDS011;16851;53.564;8.112;2022-08-20T15:24:16;6.10;;;1.25;;
30010;SDS011;16851;53.564;8.112;2022-08-20T15:29:24;6.15;;;1.30;;
30010;SDS011;16851;53.564;8.112;2022-08-20T15:34:36;9.00;;;1.35;;
30010;SDS011;16851;53.564;8.112;2022-08-20T15:39:38;8.82;;;1.48;;
30010;SDS011;16851;53.564;8.112;2022-08-20T15:44:41;55.30;;;5.65;;
30010;SDS011;16851;53.564;8.112;2022-08-20T15:49:46;6.82;;;2.00;;
30010;SDS011;16851;53.564;8.112;2022-08-20T15:54:52;17.67;;;2.20;;
30010;SDS011;16851;53.564;8.112;2022-08-20T16:16:08;9.10;;;3.65;;
30010;SDS011;16851;53.564;8.112;2022-08-20T16:21:18;12.50;;;1.77;;
30010;SDS011;16851;53.564;8.112;2022-08-20T16:31:58;6.95;;;2.08;;
30010;SDS011;16851;53.564;8.112;2022-08-20T16:42:35;7.10;;;2.88;;
30010;SDS011;16851;53.564;8.112;2022-08-20T16:47:38;6.05;;;2.00;;
30010;SDS011;16851;53.564;8.112;2022-08-20T16:52:44;9.48;;;2.35;;
30010;SDS011;16851;53.564;8.112;2022-08-20T16:57:50;7.85;;;1.52;;
30010;SDS011;16851;53.564;8.112;2022-08-20T17:03:01;5.13;;;1.35;;
30010;SDS011;16851;53.564;8.112;2022-08-20T17:08:14;7.47;;;1.30;;
30010;SDS011;16851;53.564;8.112;2022-08-20T17:13:30;7.43;;;1.58;;
30010;SDS011;16851;53.564;8.112;2022-08-20T17:18:37;7.63;;;1.48;;
30010;SDS011;16851;53.564;8.112;2022-08-20T17:23:45;6.50;;;1.60;;
30010;SDS011;16851;53.564;8.112;2022-08-20T17:28:58;7.35;;;1.90;;
30010;SDS011;16851;53.564;8.112;2022-08-20T17:34:03;7.78;;;1.40;;
30010;SDS011;16851;53.564;8.112;2022-08-20T17:39:13;7.82;;;1.50;;
30010;SDS011;16851;53.564;8.112;2022-08-20T17:44:24;7.47;;;1.73;;
30010;SDS011;16851;53.564;8.112;2022-08-20T17:49:39;6.88;;;1.40;;
30010;SDS011;16851;53.564;8.112;2022-08-20T17:55:04;7.50;;;1.60;;
30010;SDS011;16851;53.564;8.112;2022-08-20T18:00:09;5.53;;;1.35;;
30010;SDS011;16851;53.564;8.112;2022-08-20T18:05:17;8.73;;;2.30;;
30010;SDS011;16851;53.564;8.112;2022-08-20T18:10:25;5.78;;;2.00;;
30010;SDS011;16851;53.564;8.112;2022-08-20T18:15:31;11.60;;;2.63;;
30010;SDS011;16851;53.564;8.112;2022-08-20T18:26:15;8.90;;;3.45;;
30010;SDS011;16851;53.564;8.112;2022-08-20T18:31:32;10.57;;;3.57;;
30010;SDS011;16851;53.564;8.112;2022-08-20T18:36:51;8.40;;;3.33;;
30010;SDS011;16851;53.564;8.112;2022-08-20T18:42:04;10.35;;;3.22;;
30010;SDS011;16851;53.564;8.112;2022-08-20T18:47:28;7.78;;;2.63;;
30010;SDS011;16851;53.564;8.112;2022-08-20T18:52:50;8.00;;;2.33;;
30010;SDS011;16851;53.564;8.112;2022-08-20T18:58:09;5.68;;;1.77;;
30010;SDS011;16851;53.564;8.112;2022-08-20T19:08:48;5.25;;;1.60;;
30010;SDS011;16851;53.564;8.112;2022-08-20T19:19:21;9.35;;;1.90;;
30010;SDS011;16851;53.564;8.112;2022-08-20T19:24:28;7.65;;;1.73;;
30010;SDS011;16851;53.564;8.112;2022-08-20T19:29:38;9.85;;;2.20;;
30010;SDS011;16851;53.564;8.112;2022-08-20T19:34:55;9.20;;;1.70;;
30010;SDS011;16851;53.564;8.112;2022-08-20T19:40:06;5.95;;;1.83;;
30010;SDS011;16851;53.564;8.112;2022-08-20T19:56:04;9.57;;;1.80;;
30010;SDS011;16851;53.564;8.112;2022-08-20T20:01:18;5.55;;;1.60;;
30010;SDS011;16851;53.564;8.112;2022-08-20T20:06:28;5.22;;;1.85;;
30010;SDS011;16851;53.564;8.112;2022-08-20T20:16:44;5.95;;;1.70;;
30010;SDS011;16851;53.564;8.112;2022-08-20T20:21:48;8.00;;;2.45;;
30010;SDS011;16851;53.564;8.112;2022-08-20T20:26:57;5.03;;;1.73;;
30010;SDS011;16851;53.564;8.112;2022-08-20T20:32:01;7.40;;;1.80;;
30010;SDS011;16851;53.564;8.112;2022-08-20T20:37:54;11.57;;;2.08;;
30010;SDS011;16851;53.564;8.112;2022-08-20T20:43:07;5.80;;;1.48;;
30010;SDS011;16851;53.564;8.112;2022-08-20T20:48:16;9.65;;;2.25;;
30010;SDS011;16851;53.564;8.112;2022-08-20T20:53:24;7.50;;;2.00;;
30010;SDS011;16851;53.564;8.112;2022-08-20T20:58:51;7.05;;;1.52;;
30010;SDS011;16851;53.564;8.112;2022-08-20T21:03:56;4.68;;;1.63;;
30010;SDS011;16851;53.564;8.112;2022-08-20T21:09:00;7.03;;;1.63;;
30010;SDS011;16851;53.564;8.112;2022-08-20T21:14:04;5.32;;;1.88;;
30010;SDS011;16851;53.564;8.112;2022-08-20T21:19:10;7.22;;;1.90;;
30010;SDS011;16851;53.564;8.112;2022-08-20T21:24:13;6.10;;;2.38;;
30010;SDS011;16851;53.564;8.112;2022-08-20T21:29:21;8.63;;;3.28;;
30010;SDS011;16851;53.564;8.112;2022-08-20T21:34:34;9.50;;;4.13;;
30010;SDS011;16851;53.564;8.112;2022-08-20T21:39:42;11.10;;;4.93;;
30010;SDS011;16851;53.564;8.112;2022-08-20T21:44:44;8.93;;;5.22;;
30010;SDS011;16851;53.564;8.112;2022-08-20T21:49:52;9.52;;;5.50;;
30010;SDS011;16851;53.564;8.112;2022-08-20T21:54:58;12.90;;;5.97;;
30010;SDS011;16851;53.564;8.112;2022-08-20T22:00:00;11.32;;;5.43;;
30010;SDS011;16851;53.564;8.112;2022-08-20T22:05:27;10.55;;;5.03;;
30010;SDS011;16851;53.564;8.112;2022-08-20T22:10:31;7.55;;;4.47;;
30010;SDS011;16851;53.564;8.112;2022-08-20T22:15:37;8.82;;;4.15;;
30010;SDS011;16851;53.564;8.112;2022-08-20T22:20:39;11.90;;;4.00;;
30010;SDS011;16851;53.564;8.112;2022-08-20T22:25:43;8.52;;;3.47;;
30010;SDS011;16851;53.564;8.112;2022-08-20T22:30:45;6.50;;;3.60;;
30010;SDS011;16851;53.564;8.112;2022-08-20T22:35:50;7.15;;;2.95;;
30010;SDS011;16851;53.564;8.112;2022-08-20T22:40:53;4.97;;;3.15;;
30010;SDS011;16851;53.564;8.112;2022-08-20T22:46:02;5.45;;;3.25;;
30010;SDS011;16851;53.564;8.112;2022-08-20T22:51:04;6.70;;;3.47;;
30010;SDS011;16851;53.564;8.112;2022-08-20T22:56:08;5.60;;;3.30;;
30010;SDS011;16851;53.564;8.112;2022-08-20T23:01:22;6.47;;;3.08;;
30010;SDS011;16851;53.564;8.112;2022-08-20T23:06:24;6.00;;;2.97;;
30010;SDS011;16851;53.564;8.112;2022-08-20T23:11:29;9.38;;;3.70;;
30010;SDS011;16851;53.564;8.112;2022-08-20T23:16:36;5.07;;;3.25;;
30010;SDS011;16851;53.564;8.112;2022-08-20T23:21:39;4.97;;;3.10;;
30010;SDS011;16851;53.564;8.112;2022-08-20T23:26:41;6.63;;;3.83;;
30010;SDS011;16851;53.564;8.112;2022-08-20T23:31:55;6.93;;;3.67;;
30010;SDS011;16851;53.564;8.112;2022-08-20T23:36:58;7.30;;;3.67;;
30010;SDS011;16851;53.564;8.112;2022-08-20T23:42:01;7.72;;;3.90;;
30010;SDS011;16851;53.564;8.112;2022-08-20T23:47:22;8.20;;;4.38;;
30010;SDS011;16851;53.564;8.112;2022-08-20T23:52:27;5.43;;;3.90;;
30010;SDS011;16851;53.564;8.112;2022-08-20T23:57:31;6.93;;;3.83;;
